sensor_id;sensor_type;location;lat;lon;timestamp;temperature;humidity
7046;DHT22;3564;53.326;10.356;2023-12-20T00:00:58;10.50;99.90
7046;DHT22;3564;53.326;10.356;2023-12-20T00:03:23;10.50;99.90
7046;DHT22;3564;53.326;10.356;2023-12-20T00:05:52;10.50;99.90
7046;DHT22;3564;53.326;10.356;2023-12-20T00:08:18;10.50;99.90
7046;DHT22;3564;53.326;10.356;2023-12-20T00:10:44;10.50;99.90
7046;DHT22;3564;53.326;10.356;2023-12-20T00:13:15;10.50;99.90
7046;DHT22;3564;53.326;10.356;2023-12-20T00:15:41;10.50;99.90
7046;DHT22;3564;53.326;10.356;2023-12-20T00:18:09;10.50;99.90
7046;DHT22;3564;53.326;10.356;2023-12-20T00:20:35;10.40;99.90
7046;DHT22;3564;53.326;10.356;2023-12-20T00:23:01;10.50;99.90
7046;DHT22;3564;53.326;10.356;2023-12-20T00:25:27;10.50;99.90
7046;DHT22;3564;53.326;10.356;2023-12-20T00:27:53;10.40;99.90
7046;DHT22;3564;53.326;10.356;2023-12-20T00:30:19;10.50;99.90
7046;DHT22;3564;53.326;10.356;2023-12-20T00:32:50;10.40;99.90
7046;DHT22;3564;53.326;10.356;2023-12-20T00:35:16;10.40;99.90
7046;DHT22;3564;53.326;10.356;2023-12-20T00:37:42;10.40;99.90
7046;DHT22;3564;53.326;10.356;2023-12-20T00:40:11;10.40;99.90
7046;DHT22;3564;53.326;10.356;2023-12-20T00:42:37;10.30;99.90
7046;DHT22;3564;53.326;10.356;2023-12-20T00:45:03;10.30;99.90
7046;DHT22;3564;53.326;10.356;2023-12-20T00:47:33;10.30;99.90
7046;DHT22;3564;53.326;10.356;2023-12-20T00:49:58;10.20;99.90
7046;DHT22;3564;53.326;10.356;2023-12-20T00:52:24;10.20;99.90
7046;DHT22;3564;53.326;10.356;2023-12-20T00:54:51;10.20;99.90
7046;DHT22;3564;53.326;10.356;2023-12-20T00:57:17;10.20;99.90
7046;DHT22;3564;53.326;10.356;2023-12-20T00:59:43;10.20;99.90
7046;DHT22;3564;53.326;10.356;2023-12-20T01:02:08;10.20;99.90
7046;DHT22;3564;53.326;10.356;2023-12-20T01:04:38;10.10;99.90
7046;DHT22;3564;53.326;10.356;2023-12-20T01:07:12;10.10;99.90
7046;DHT22;3564;53.326;10.356;2023-12-20T01:09:38;9.90;99.90
7046;DHT22;3564;53.326;10.356;2023-12-20T01:12:04;10.00;99.90
7046;DHT22;3564;53.326;10.356;2023-12-20T01:14:29;10.00;99.90
7046;DHT22;3564;53.326;10.356;2023-12-20T01:16:55;9.90;99.90
7046;DHT22;3564;53.326;10.356;2023-12-20T01:19:21;9.80;99.90
7046;DHT22;3564;53.326;10.356;2023-12-20T01:21:46;9.80;99.90
7046;DHT22;3564;53.326;10.356;2023-12-20T01:24:12;9.80;99.90
7046;DHT22;3564;53.326;10.356;2023-12-20T01:26:38;9.80;99.90
7046;DHT22;3564;53.326;10.356;2023-12-20T01:29:06;9.80;99.90
7046;DHT22;3564;53.326;10.356;2023-12-20T01:31:32;9.80;99.90
7046;DHT22;3564;53.326;10.356;2023-12-20T01:33:57;9.80;99.90
7046;DHT22;3564;53.326;10.356;2023-12-20T01:36:23;9.70;99.90
7046;DHT22;3564;53.326;10.356;2023-12-20T01:38:48;9.70;99.90
7046;DHT22;3564;53.326;10.356;2023-12-20T01:41:14;9.80;99.90
7046;DHT22;3564;53.326;10.356;2023-12-20T01:43:40;9.70;99.90
7046;DHT22;3564;53.326;10.356;2023-12-20T01:46:06;9.70;99.90
7046;DHT22;3564;53.326;10.356;2023-12-20T01:48:32;9.70;99.90
7046;DHT22;3564;53.326;10.356;2023-12-20T01:51:02;9.60;99.90
7046;DHT22;3564;53.326;10.356;2023-12-20T01:53:28;9.70;99.90
7046;DHT22;3564;53.326;10.356;2023-12-20T01:55:55;9.70;99.90
7046;DHT22;3564;53.326;10.356;2023-12-20T01:58:21;9.60;99.90
7046;DHT22;3564;53.326;10.356;2023-12-20T02:00:48;9.50;99.90
7046;DHT22;3564;53.326;10.356;2023-12-20T02:03:14;9.40;99.90
7046;DHT22;3564;53.326;10.356;2023-12-20T02:05:42;9.40;99.90
7046;DHT22;3564;53.326;10.356;2023-12-20T02:08:09;9.40;99.90
7046;DHT22;3564;53.326;10.356;2023-12-20T02:10:35;9.50;99.90
7046;DHT22;3564;53.326;10.356;2023-12-20T02:13:00;9.50;99.90
7046;DHT22;3564;53.326;10.356;2023-12-20T02:15:26;9.40;99.90
7046;DHT22;3564;53.326;10.356;2023-12-20T02:17:55;9.30;99.90
7046;DHT22;3564;53.326;10.356;2023-12-20T02:20:21;9.40;99.90
7046;DHT22;3564;53.326;10.356;2023-12-20T02:22:46;9.30;99.90
7046;DHT22;3564;53.326;10.356;2023-12-20T02:25:12;9.30;99.90
7046;DHT22;3564;53.326;10.356;2023-12-20T02:27:38;9.40;99.90
7046;DHT22;3564;53.326;10.356;2023-12-20T02:30:05;9.40;99.90
7046;DHT22;3564;53.326;10.356;2023-12-20T02:32:31;9.40;99.90
7046;DHT22;3564;53.326;10.356;2023-12-20T02:34:58;9.30;99.90
7046;DHT22;3564;53.326;10.356;2023-12-20T02:37:23;9.30;99.90
7046;DHT22;3564;53.326;10.356;2023-12-20T02:39:49;9.30;99.90
7046;DHT22;3564;53.326;10.356;2023-12-20T02:42:15;9.30;99.90
7046;DHT22;3564;53.326;10.356;2023-12-20T02:44:46;9.30;99.90
7046;DHT22;3564;53.326;10.356;2023-12-20T02:47:14;9.20;99.90
7046;DHT22;3564;53.326;10.356;2023-12-20T02:49:43;9.20;99.90
7046;DHT22;3564;53.326;10.356;2023-12-20T02:52:09;9.10;99.90
7046;DHT22;3564;53.326;10.356;2023-12-20T02:54:38;9.20;99.90
7046;DHT22;3564;53.326;10.356;2023-12-20T02:57:03;9.30;99.90
7046;DHT22;3564;53.326;10.356;2023-12-20T02:59:29;9.30;99.90
7046;DHT22;3564;53.326;10.356;2023-12-20T03:01:55;9.30;99.90
7046;DHT22;3564;53.326;10.356;2023-12-20T03:04:20;9.30;99.90
7046;DHT22;3564;53.326;10.356;2023-12-20T03:06:46;9.30;99.90
7046;DHT22;3564;53.326;10.356;2023-12-20T03:09:11;9.30;99.90
7046;DHT22;3564;53.326;10.356;2023-12-20T03:11:37;9.30;99.90
7046;DHT22;3564;53.326;10.356;2023-12-20T03:14:03;9.30;99.90
7046;DHT22;3564;53.326;10.356;2023-12-20T03:16:28;9.30;99.90
7046;DHT22;3564;53.326;10.356;2023-12-20T03:18:54;9.30;99.90
7046;DHT22;3564;53.326;10.356;2023-12-20T03:21:26;9.30;99.90
7046;DHT22;3564;53.326;10.356;2023-12-20T03:23:51;9.20;99.90
7046;DHT22;3564;53.326;10.356;2023-12-20T03:26:17;9.10;99.90
7046;DHT22;3564;53.326;10.356;2023-12-20T03:28:42;9.10;99.90
7046;DHT22;3564;53.326;10.356;2023-12-20T03:31:09;9.10;99.90
7046;DHT22;3564;53.326;10.356;2023-12-20T03:33:38;9.10;99.90
7046;DHT22;3564;53.326;10.356;2023-12-20T03:36:07;9.20;99.90
7046;DHT22;3564;53.326;10.356;2023-12-20T03:38:35;9.20;99.90
7046;DHT22;3564;53.326;10.356;2023-12-20T03:41:01;9.20;99.90
7046;DHT22;3564;53.326;10.356;2023-12-20T03:43:26;9.20;99.90
7046;DHT22;3564;53.326;10.356;2023-12-20T03:45:55;9.30;99.90
7046;DHT22;3564;53.326;10.356;2023-12-20T03:48:20;9.20;99.90
7046;DHT22;3564;53.326;10.356;2023-12-20T03:50:46;9.30;99.90
7046;DHT22;3564;53.326;10.356;2023-12-20T03:53:12;9.30;99.90
7046;DHT22;3564;53.326;10.356;2023-12-20T03:55:38;9.20;99.90
7046;DHT22;3564;53.326;10.356;2023-12-20T03:58:03;9.20;99.90
7046;DHT22;3564;53.326;10.356;2023-12-20T04:00:32;9.30;99.90
7046;DHT22;3564;53.326;10.356;2023-12-20T04:02:58;9.20;99.90
7046;DHT22;3564;53.326;10.356;2023-12-20T04:05:23;9.30;99.90
7046;DHT22;3564;53.326;10.356;2023-12-20T04:07:52;9.20;99.90
7046;DHT22;3564;53.326;10.356;2023-12-20T04:10:17;9.20;99.90
7046;DHT22;3564;53.326;10.356;2023-12-20T04:12:43;9.30;99.90
7046;DHT22;3564;53.326;10.356;2023-12-20T04:15:09;9.30;99.90
7046;DHT22;3564;53.326;10.356;2023-12-20T04:17:35;9.30;99.90
7046;DHT22;3564;53.326;10.356;2023-12-20T04:20:02;9.20;99.90
7046;DHT22;3564;53.326;10.356;2023-12-20T04:22:34;9.20;99.90
7046;DHT22;3564;53.326;10.356;2023-12-20T04:25:02;9.30;99.90
7046;DHT22;3564;53.326;10.356;2023-12-20T04:27:28;9.30;99.90
7046;DHT22;3564;53.326;10.356;2023-12-20T04:29:54;9.20;99.90
7046;DHT22;3564;53.326;10.356;2023-12-20T04:32:20;9.20;99.90
7046;DHT22;3564;53.326;10.356;2023-12-20T04:34:45;9.20;99.90
7046;DHT22;3564;53.326;10.356;2023-12-20T04:37:11;9.20;99.90
7046;DHT22;3564;53.326;10.356;2023-12-20T04:39:40;9.20;99.90
7046;DHT22;3564;53.326;10.356;2023-12-20T04:42:07;9.30;99.90
7046;DHT22;3564;53.326;10.356;2023-12-20T04:44:32;9.30;99.90
7046;DHT22;3564;53.326;10.356;2023-12-20T04:46:58;9.30;99.90
7046;DHT22;3564;53.326;10.356;2023-12-20T04:49:24;9.30;99.90
7046;DHT22;3564;53.326;10.356;2023-12-20T04:51:49;9.30;99.90
7046;DHT22;3564;53.326;10.356;2023-12-20T04:54:15;9.20;99.90
7046;DHT22;3564;53.326;10.356;2023-12-20T04:56:43;9.30;99.90
7046;DHT22;3564;53.326;10.356;2023-12-20T04:59:09;9.30;99.90
7046;DHT22;3564;53.326;10.356;2023-12-20T05:01:34;9.30;99.90
7046;DHT22;3564;53.326;10.356;2023-12-20T05:04:00;9.20;99.90
7046;DHT22;3564;53.326;10.356;2023-12-20T05:06:25;9.20;99.90
7046;DHT22;3564;53.326;10.356;2023-12-20T05:08:51;9.20;99.90
7046;DHT22;3564;53.326;10.356;2023-12-20T05:11:17;9.20;99.90
7046;DHT22;3564;53.326;10.356;2023-12-20T05:13:42;9.10;99.90
7046;DHT22;3564;53.326;10.356;2023-12-20T05:16:11;9.10;99.90
7046;DHT22;3564;53.326;10.356;2023-12-20T05:18:36;9.20;99.90
7046;DHT22;3564;53.326;10.356;2023-12-20T05:21:02;9.20;99.90
7046;DHT22;3564;53.326;10.356;2023-12-20T05:23:28;9.30;99.90
7046;DHT22;3564;53.326;10.356;2023-12-20T05:25:54;9.20;99.90
7046;DHT22;3564;53.326;10.356;2023-12-20T05:28:19;9.10;99.90
7046;DHT22;3564;53.326;10.356;2023-12-20T05:30:45;9.20;99.90
7046;DHT22;3564;53.326;10.356;2023-12-20T05:33:10;9.30;99.90
7046;DHT22;3564;53.326;10.356;2023-12-20T05:35:36;9.20;99.90
7046;DHT22;3564;53.326;10.356;2023-12-20T05:38:02;9.20;99.90
7046;DHT22;3564;53.326;10.356;2023-12-20T05:40:27;9.10;99.90
7046;DHT22;3564;53.326;10.356;2023-12-20T05:42:53;9.10;99.90
7046;DHT22;3564;53.326;10.356;2023-12-20T05:45:19;9.20;99.90
7046;DHT22;3564;53.326;10.356;2023-12-20T05:47:45;9.10;99.90
7046;DHT22;3564;53.326;10.356;2023-12-20T05:50:11;9.10;99.90
7046;DHT22;3564;53.326;10.356;2023-12-20T05:52:36;9.20;99.90
7046;DHT22;3564;53.326;10.356;2023-12-20T05:55:08;9.20;99.90
7046;DHT22;3564;53.326;10.356;2023-12-20T05:57:33;9.30;99.90
7046;DHT22;3564;53.326;10.356;2023-12-20T05:59:59;9.20;99.90
7046;DHT22;3564;53.326;10.356;2023-12-20T06:02:24;9.20;99.90
7046;DHT22;3564;53.326;10.356;2023-12-20T06:04:50;9.20;99.90
7046;DHT22;3564;53.326;10.356;2023-12-20T06:07:19;9.10;99.90
7046;DHT22;3564;53.326;10.356;2023-12-20T06:09:47;9.10;99.90
7046;DHT22;3564;53.326;10.356;2023-12-20T06:12:12;9.20;99.90
7046;DHT22;3564;53.326;10.356;2023-12-20T06:14:38;9.20;99.90
7046;DHT22;3564;53.326;10.356;2023-12-20T06:17:06;9.20;99.90
7046;DHT22;3564;53.326;10.356;2023-12-20T06:19:32;9.20;99.90
7046;DHT22;3564;53.326;10.356;2023-12-20T06:22:01;9.10;99.90
7046;DHT22;3564;53.326;10.356;2023-12-20T06:24:26;9.10;99.90
7046;DHT22;3564;53.326;10.356;2023-12-20T06:26:54;9.20;99.90
7046;DHT22;3564;53.326;10.356;2023-12-20T06:29:20;9.30;99.90
7046;DHT22;3564;53.326;10.356;2023-12-20T06:31:46;9.30;99.90
7046;DHT22;3564;53.326;10.356;2023-12-20T06:34:11;9.40;99.90
7046;DHT22;3564;53.326;10.356;2023-12-20T06:36:37;9.40;99.90
7046;DHT22;3564;53.326;10.356;2023-12-20T06:39:03;9.40;99.90
7046;DHT22;3564;53.326;10.356;2023-12-20T06:41:32;9.40;99.90
7046;DHT22;3564;53.326;10.356;2023-12-20T06:43:58;9.40;99.90
7046;DHT22;3564;53.326;10.356;2023-12-20T06:46:24;9.40;99.90
7046;DHT22;3564;53.326;10.356;2023-12-20T06:48:49;9.40;99.90
7046;DHT22;3564;53.326;10.356;2023-12-20T06:51:16;9.30;99.90
7046;DHT22;3564;53.326;10.356;2023-12-20T06:53:42;9.40;99.90
7046;DHT22;3564;53.326;10.356;2023-12-20T06:56:07;9.40;99.90
7046;DHT22;3564;53.326;10.356;2023-12-20T06:58:34;9.40;99.90
7046;DHT22;3564;53.326;10.356;2023-12-20T07:01:11;9.50;99.90
7046;DHT22;3564;53.326;10.356;2023-12-20T07:03:37;9.50;99.90
7046;DHT22;3564;53.326;10.356;2023-12-20T07:06:06;9.40;99.90
7046;DHT22;3564;53.326;10.356;2023-12-20T07:08:31;9.40;99.90
7046;DHT22;3564;53.326;10.356;2023-12-20T07:10:57;9.40;99.90
7046;DHT22;3564;53.326;10.356;2023-12-20T07:13:26;9.40;99.90
7046;DHT22;3564;53.326;10.356;2023-12-20T07:15:51;9.40;99.90
7046;DHT22;3564;53.326;10.356;2023-12-20T07:18:19;9.50;99.90
7046;DHT22;3564;53.326;10.356;2023-12-20T07:20:45;9.60;99.90
7046;DHT22;3564;53.326;10.356;2023-12-20T07:23:11;9.50;99.90
7046;DHT22;3564;53.326;10.356;2023-12-20T07:25:36;9.50;99.90
7046;DHT22;3564;53.326;10.356;2023-12-20T07:28:05;9.30;99.90
7046;DHT22;3564;53.326;10.356;2023-12-20T07:30:31;9.40;99.90
7046;DHT22;3564;53.326;10.356;2023-12-20T07:32:57;9.50;99.90
7046;DHT22;3564;53.326;10.356;2023-12-20T07:35:23;9.40;99.90
7046;DHT22;3564;53.326;10.356;2023-12-20T07:37:50;9.30;99.90
7046;DHT22;3564;53.326;10.356;2023-12-20T07:40:16;9.30;99.90
7046;DHT22;3564;53.326;10.356;2023-12-20T07:42:42;9.30;99.90
7046;DHT22;3564;53.326;10.356;2023-12-20T07:45:08;9.30;99.90
7046;DHT22;3564;53.326;10.356;2023-12-20T07:47:36;9.40;99.90
7046;DHT22;3564;53.326;10.356;2023-12-20T07:50:01;9.40;99.90
7046;DHT22;3564;53.326;10.356;2023-12-20T07:52:28;9.40;99.90
7046;DHT22;3564;53.326;10.356;2023-12-20T07:54:54;9.30;99.90
7046;DHT22;3564;53.326;10.356;2023-12-20T07:57:20;9.40;99.90
7046;DHT22;3564;53.326;10.356;2023-12-20T07:59:45;9.30;99.90
7046;DHT22;3564;53.326;10.356;2023-12-20T08:02:11;9.30;99.90
7046;DHT22;3564;53.326;10.356;2023-12-20T08:04:39;9.40;99.90
7046;DHT22;3564;53.326;10.356;2023-12-20T08:07:09;9.50;99.90
7046;DHT22;3564;53.326;10.356;2023-12-20T08:09:34;9.50;99.90
7046;DHT22;3564;53.326;10.356;2023-12-20T08:12:05;9.40;99.90
7046;DHT22;3564;53.326;10.356;2023-12-20T08:14:30;9.40;99.90
7046;DHT22;3564;53.326;10.356;2023-12-20T08:16:57;9.40;99.90
7046;DHT22;3564;53.326;10.356;2023-12-20T08:19:22;9.40;99.90
7046;DHT22;3564;53.326;10.356;2023-12-20T08:21:51;9.40;99.90
7046;DHT22;3564;53.326;10.356;2023-12-20T08:24:16;9.30;99.90
7046;DHT22;3564;53.326;10.356;2023-12-20T08:26:45;9.30;99.90
7046;DHT22;3564;53.326;10.356;2023-12-20T08:29:13;9.30;99.90
7046;DHT22;3564;53.326;10.356;2023-12-20T08:31:39;9.30;99.90
7046;DHT22;3564;53.326;10.356;2023-12-20T08:34:05;9.30;99.90
7046;DHT22;3564;53.326;10.356;2023-12-20T08:36:33;9.30;99.90
7046;DHT22;3564;53.326;10.356;2023-12-20T08:38:59;9.30;99.90
7046;DHT22;3564;53.326;10.356;2023-12-20T08:41:26;9.30;99.90
7046;DHT22;3564;53.326;10.356;2023-12-20T08:43:51;9.30;99.90
7046;DHT22;3564;53.326;10.356;2023-12-20T08:46:17;9.40;99.90
7046;DHT22;3564;53.326;10.356;2023-12-20T08:48:43;9.40;99.90
7046;DHT22;3564;53.326;10.356;2023-12-20T08:51:08;9.40;99.90
7046;DHT22;3564;53.326;10.356;2023-12-20T08:53:35;9.40;99.90
7046;DHT22;3564;53.326;10.356;2023-12-20T08:56:01;9.40;99.90
7046;DHT22;3564;53.326;10.356;2023-12-20T08:58:27;9.50;99.90
7046;DHT22;3564;53.326;10.356;2023-12-20T09:00:53;9.60;99.90
7046;DHT22;3564;53.326;10.356;2023-12-20T09:03:19;9.60;99.90
7046;DHT22;3564;53.326;10.356;2023-12-20T09:05:47;9.50;99.90
7046;DHT22;3564;53.326;10.356;2023-12-20T09:08:13;9.50;99.90
7046;DHT22;3564;53.326;10.356;2023-12-20T09:10:38;9.40;99.90
7046;DHT22;3564;53.326;10.356;2023-12-20T09:13:04;9.40;99.90
7046;DHT22;3564;53.326;10.356;2023-12-20T09:15:32;9.50;99.90
7046;DHT22;3564;53.326;10.356;2023-12-20T09:18:02;9.50;99.90
7046;DHT22;3564;53.326;10.356;2023-12-20T09:20:28;9.60;99.90
7046;DHT22;3564;53.326;10.356;2023-12-20T09:23:00;9.60;99.90
7046;DHT22;3564;53.326;10.356;2023-12-20T09:25:26;9.60;99.90
7046;DHT22;3564;53.326;10.356;2023-12-20T09:27:52;9.50;99.90
7046;DHT22;3564;53.326;10.356;2023-12-20T09:30:18;9.60;99.90
7046;DHT22;3564;53.326;10.356;2023-12-20T09:32:45;9.50;99.90
7046;DHT22;3564;53.326;10.356;2023-12-20T09:35:10;9.50;99.90
7046;DHT22;3564;53.326;10.356;2023-12-20T09:37:36;9.50;99.90
7046;DHT22;3564;53.326;10.356;2023-12-20T09:40:02;9.50;99.90
7046;DHT22;3564;53.326;10.356;2023-12-20T09:42:44;9.40;99.90
7046;DHT22;3564;53.326;10.356;2023-12-20T09:45:14;9.40;99.90
7046;DHT22;3564;53.326;10.356;2023-12-20T09:47:43;9.40;99.90
7046;DHT22;3564;53.326;10.356;2023-12-20T09:50:09;9.30;99.90
7046;DHT22;3564;53.326;10.356;2023-12-20T09:52:36;9.30;99.90
7046;DHT22;3564;53.326;10.356;2023-12-20T09:55:03;9.30;99.90
7046;DHT22;3564;53.326;10.356;2023-12-20T09:57:31;9.40;99.90
7046;DHT22;3564;53.326;10.356;2023-12-20T10:00:00;9.40;99.90
7046;DHT22;3564;53.326;10.356;2023-12-20T10:02:26;9.40;99.90
7046;DHT22;3564;53.326;10.356;2023-12-20T10:04:54;9.40;99.90
7046;DHT22;3564;53.326;10.356;2023-12-20T10:07:20;9.30;99.90
7046;DHT22;3564;53.326;10.356;2023-12-20T10:09:47;9.30;99.90
7046;DHT22;3564;53.326;10.356;2023-12-20T10:12:13;9.40;99.90
7046;DHT22;3564;53.326;10.356;2023-12-20T10:14:39;9.40;99.90
7046;DHT22;3564;53.326;10.356;2023-12-20T10:17:05;9.40;99.90
7046;DHT22;3564;53.326;10.356;2023-12-20T10:19:32;9.40;99.90
7046;DHT22;3564;53.326;10.356;2023-12-20T10:22:03;9.40;99.90
7046;DHT22;3564;53.326;10.356;2023-12-20T10:24:32;9.30;99.90
7046;DHT22;3564;53.326;10.356;2023-12-20T10:27:08;9.30;99.90
7046;DHT22;3564;53.326;10.356;2023-12-20T10:29:35;9.30;99.90
7046;DHT22;3564;53.326;10.356;2023-12-20T10:32:27;9.30;99.90
7046;DHT22;3564;53.326;10.356;2023-12-20T10:34:54;9.30;99.90
7046;DHT22;3564;53.326;10.356;2023-12-20T10:37:20;9.30;99.90
7046;DHT22;3564;53.326;10.356;2023-12-20T10:39:55;9.40;99.90
7046;DHT22;3564;53.326;10.356;2023-12-20T10:42:26;9.40;99.90
7046;DHT22;3564;53.326;10.356;2023-12-20T10:44:52;9.30;99.90
7046;DHT22;3564;53.326;10.356;2023-12-20T10:47:20;9.30;99.90
7046;DHT22;3564;53.326;10.356;2023-12-20T10:49:46;9.40;99.90
7046;DHT22;3564;53.326;10.356;2023-12-20T10:52:12;9.40;99.90
7046;DHT22;3564;53.326;10.356;2023-12-20T10:54:42;9.40;99.90
7046;DHT22;3564;53.326;10.356;2023-12-20T10:57:07;9.50;99.90
7046;DHT22;3564;53.326;10.356;2023-12-20T10:59:36;9.60;99.90
7046;DHT22;3564;53.326;10.356;2023-12-20T11:02:05;9.60;99.90
7046;DHT22;3564;53.326;10.356;2023-12-20T11:04:39;9.60;99.90
7046;DHT22;3564;53.326;10.356;2023-12-20T11:07:41;9.50;99.90
7046;DHT22;3564;53.326;10.356;2023-12-20T11:10:31;9.50;99.90
7046;DHT22;3564;53.326;10.356;2023-12-20T11:16:11;9.40;99.90
7046;DHT22;3564;53.326;10.356;2023-12-20T11:18:36;9.30;99.90
7046;DHT22;3564;53.326;10.356;2023-12-20T11:21:04;9.40;99.90
7046;DHT22;3564;53.326;10.356;2023-12-20T11:23:30;9.30;99.90
7046;DHT22;3564;53.326;10.356;2023-12-20T11:25:58;9.30;99.90
7046;DHT22;3564;53.326;10.356;2023-12-20T11:28:27;9.40;99.90
7046;DHT22;3564;53.326;10.356;2023-12-20T11:30:57;9.40;99.90
7046;DHT22;3564;53.326;10.356;2023-12-20T11:33:35;9.30;99.90
7046;DHT22;3564;53.326;10.356;2023-12-20T11:36:01;9.30;99.90
7046;DHT22;3564;53.326;10.356;2023-12-20T11:38:35;9.30;99.90
7046;DHT22;3564;53.326;10.356;2023-12-20T11:41:01;9.30;99.90
7046;DHT22;3564;53.326;10.356;2023-12-20T11:43:36;9.20;99.90
7046;DHT22;3564;53.326;10.356;2023-12-20T11:46:19;9.30;99.90
7046;DHT22;3564;53.326;10.356;2023-12-20T11:48:46;9.30;99.90
7046;DHT22;3564;53.326;10.356;2023-12-20T11:51:13;9.30;99.90
7046;DHT22;3564;53.326;10.356;2023-12-20T11:53:40;9.30;99.90
7046;DHT22;3564;53.326;10.356;2023-12-20T11:56:06;9.30;99.90
7046;DHT22;3564;53.326;10.356;2023-12-20T11:58:33;9.30;99.90
7046;DHT22;3564;53.326;10.356;2023-12-20T12:00:59;9.30;99.90
7046;DHT22;3564;53.326;10.356;2023-12-20T12:03:25;9.30;99.90
7046;DHT22;3564;53.326;10.356;2023-12-20T12:05:51;9.40;99.90
7046;DHT22;3564;53.326;10.356;2023-12-20T12:08:19;9.50;99.90
7046;DHT22;3564;53.326;10.356;2023-12-20T12:10:45;9.50;99.90
7046;DHT22;3564;53.326;10.356;2023-12-20T12:13:11;9.50;99.90
7046;DHT22;3564;53.326;10.356;2023-12-20T12:15:37;9.40;99.90
7046;DHT22;3564;53.326;10.356;2023-12-20T12:18:03;9.50;99.90
7046;DHT22;3564;53.326;10.356;2023-12-20T12:20:30;9.50;99.90
7046;DHT22;3564;53.326;10.356;2023-12-20T12:25:29;9.70;99.90
7046;DHT22;3564;53.326;10.356;2023-12-20T12:28:01;9.60;99.90
7046;DHT22;3564;53.326;10.356;2023-12-20T12:30:27;9.70;99.90
7046;DHT22;3564;53.326;10.356;2023-12-20T12:32:56;9.70;99.90
7046;DHT22;3564;53.326;10.356;2023-12-20T12:35:23;9.70;99.90
7046;DHT22;3564;53.326;10.356;2023-12-20T12:37:48;9.70;99.90
7046;DHT22;3564;53.326;10.356;2023-12-20T12:40:16;9.70;99.90
7046;DHT22;3564;53.326;10.356;2023-12-20T12:42:43;9.70;99.90
7046;DHT22;3564;53.326;10.356;2023-12-20T12:45:09;9.80;99.90
7046;DHT22;3564;53.326;10.356;2023-12-20T12:47:40;9.70;99.90
7046;DHT22;3564;53.326;10.356;2023-12-20T12:50:05;9.80;99.90
7046;DHT22;3564;53.326;10.356;2023-12-20T12:52:34;9.80;99.90
7046;DHT22;3564;53.326;10.356;2023-12-20T12:55:06;9.80;99.90
7046;DHT22;3564;53.326;10.356;2023-12-20T12:57:32;9.70;99.90
7046;DHT22;3564;53.326;10.356;2023-12-20T12:59:58;9.80;99.90
7046;DHT22;3564;53.326;10.356;2023-12-20T13:02:24;9.80;99.90
7046;DHT22;3564;53.326;10.356;2023-12-20T13:04:50;9.80;99.90
7046;DHT22;3564;53.326;10.356;2023-12-20T13:07:16;9.90;99.90
7046;DHT22;3564;53.326;10.356;2023-12-20T13:09:41;9.90;99.90
7046;DHT22;3564;53.326;10.356;2023-12-20T13:12:07;9.90;99.90
7046;DHT22;3564;53.326;10.356;2023-12-20T13:14:34;10.00;99.90
7046;DHT22;3564;53.326;10.356;2023-12-20T13:17:01;10.00;99.90
7046;DHT22;3564;53.326;10.356;2023-12-20T13:19:26;9.90;99.90
7046;DHT22;3564;53.326;10.356;2023-12-20T13:21:52;10.00;99.90
7046;DHT22;3564;53.326;10.356;2023-12-20T13:24:18;10.00;99.90
7046;DHT22;3564;53.326;10.356;2023-12-20T13:26:44;9.90;99.90
7046;DHT22;3564;53.326;10.356;2023-12-20T13:29:19;10.00;99.90
7046;DHT22;3564;53.326;10.356;2023-12-20T13:31:44;10.00;99.90
7046;DHT22;3564;53.326;10.356;2023-12-20T13:34:13;10.00;99.90
7046;DHT22;3564;53.326;10.356;2023-12-20T13:36:39;10.10;99.90
7046;DHT22;3564;53.326;10.356;2023-12-20T13:39:04;10.00;99.90
7046;DHT22;3564;53.326;10.356;2023-12-20T13:41:31;10.10;99.90
7046;DHT22;3564;53.326;10.356;2023-12-20T13:43:56;10.00;99.90
7046;DHT22;3564;53.326;10.356;2023-12-20T13:46:25;10.00;99.90
7046;DHT22;3564;53.326;10.356;2023-12-20T13:48:51;9.90;99.90
7046;DHT22;3564;53.326;10.356;2023-12-20T13:51:16;9.90;99.90
7046;DHT22;3564;53.326;10.356;2023-12-20T13:53:42;10.00;99.90
7046;DHT22;3564;53.326;10.356;2023-12-20T13:56:07;10.00;99.90
7046;DHT22;3564;53.326;10.356;2023-12-20T13:58:33;9.90;99.90
7046;DHT22;3564;53.326;10.356;2023-12-20T14:00:59;9.90;99.90
7046;DHT22;3564;53.326;10.356;2023-12-20T14:03:24;9.90;99.90
7046;DHT22;3564;53.326;10.356;2023-12-20T14:05:53;9.80;99.90
7046;DHT22;3564;53.326;10.356;2023-12-20T14:08:18;9.80;99.90
7046;DHT22;3564;53.326;10.356;2023-12-20T14:10:44;9.80;99.90
7046;DHT22;3564;53.326;10.356;2023-12-20T14:13:10;9.80;99.90
7046;DHT22;3564;53.326;10.356;2023-12-20T14:15:35;9.90;99.90
7046;DHT22;3564;53.326;10.356;2023-12-20T14:18:05;9.90;99.90
7046;DHT22;3564;53.326;10.356;2023-12-20T14:20:32;9.80;99.90
7046;DHT22;3564;53.326;10.356;2023-12-20T14:23:00;9.80;99.90
7046;DHT22;3564;53.326;10.356;2023-12-20T14:25:26;9.80;99.90
7046;DHT22;3564;53.326;10.356;2023-12-20T14:27:51;9.80;99.90
7046;DHT22;3564;53.326;10.356;2023-12-20T14:30:17;9.80;99.90
7046;DHT22;3564;53.326;10.356;2023-12-20T14:32:43;9.80;99.90
7046;DHT22;3564;53.326;10.356;2023-12-20T14:35:09;9.80;99.90
7046;DHT22;3564;53.326;10.356;2023-12-20T14:37:35;9.80;99.90
7046;DHT22;3564;53.326;10.356;2023-12-20T14:40:07;9.80;99.90
7046;DHT22;3564;53.326;10.356;2023-12-20T14:42:43;9.80;99.90
7046;DHT22;3564;53.326;10.356;2023-12-20T14:45:09;9.90;99.90
7046;DHT22;3564;53.326;10.356;2023-12-20T14:47:35;9.90;99.90
7046;DHT22;3564;53.326;10.356;2023-12-20T14:50:03;9.80;99.90
7046;DHT22;3564;53.326;10.356;2023-12-20T14:52:29;9.90;99.90
7046;DHT22;3564;53.326;10.356;2023-12-20T14:54:55;9.90;99.90
7046;DHT22;3564;53.326;10.356;2023-12-20T14:57:20;9.80;99.90
7046;DHT22;3564;53.326;10.356;2023-12-20T14:59:49;9.80;99.90
7046;DHT22;3564;53.326;10.356;2023-12-20T15:02:15;9.70;99.90
7046;DHT22;3564;53.326;10.356;2023-12-20T15:04:41;9.70;99.90
7046;DHT22;3564;53.326;10.356;2023-12-20T15:07:06;9.70;99.90
7046;DHT22;3564;53.326;10.356;2023-12-20T15:09:32;9.70;99.90
7046;DHT22;3564;53.326;10.356;2023-12-20T15:11:58;9.80;99.90
7046;DHT22;3564;53.326;10.356;2023-12-20T15:14:23;9.70;99.90
7046;DHT22;3564;53.326;10.356;2023-12-20T15:16:49;9.80;99.90
7046;DHT22;3564;53.326;10.356;2023-12-20T15:19:20;9.80;99.90
7046;DHT22;3564;53.326;10.356;2023-12-20T15:21:49;9.80;99.90
7046;DHT22;3564;53.326;10.356;2023-12-20T15:24:15;9.80;99.90
7046;DHT22;3564;53.326;10.356;2023-12-20T15:26:43;9.80;99.90
7046;DHT22;3564;53.326;10.356;2023-12-20T15:29:10;9.80;99.90
7046;DHT22;3564;53.326;10.356;2023-12-20T15:31:42;9.80;99.90
7046;DHT22;3564;53.326;10.356;2023-12-20T15:34:08;9.70;99.90
7046;DHT22;3564;53.326;10.356;2023-12-20T15:36:34;9.70;99.90
7046;DHT22;3564;53.326;10.356;2023-12-20T15:39:00;9.70;99.90
7046;DHT22;3564;53.326;10.356;2023-12-20T15:41:31;9.60;99.90
7046;DHT22;3564;53.326;10.356;2023-12-20T15:43:59;9.70;99.90
7046;DHT22;3564;53.326;10.356;2023-12-20T15:46:25;9.60;99.90
7046;DHT22;3564;53.326;10.356;2023-12-20T15:48:51;9.60;99.90
7046;DHT22;3564;53.326;10.356;2023-12-20T15:51:21;9.70;99.90
7046;DHT22;3564;53.326;10.356;2023-12-20T15:53:47;9.60;99.90
7046;DHT22;3564;53.326;10.356;2023-12-20T15:56:12;9.60;99.90
7046;DHT22;3564;53.326;10.356;2023-12-20T15:58:38;9.60;99.90
7046;DHT22;3564;53.326;10.356;2023-12-20T16:01:04;9.60;99.90
7046;DHT22;3564;53.326;10.356;2023-12-20T16:03:30;9.60;99.90